createdAt,value
2022-09-03T00:00:12.237Z,100937.00
2022-09-03T00:02:41.089Z,100931.00
2022-09-03T00:05:27.022Z,100936.00
2022-09-03T00:07:56.528Z,100941.00
2022-09-03T00:10:29.715Z,100942.00
2022-09-03T00:12:57.645Z,100940.00
2022-09-03T00:15:24.380Z,100939.00
2022-09-03T00:17:53.834Z,100938.00
2022-09-03T00:20:24.735Z,100940.00
2022-09-03T00:22:52.988Z,100927.00
2022-09-03T00:25:39.016Z,100931.00
2022-09-03T00:28:08.280Z,100924.00
2022-09-03T00:30:35.288Z,100925.00
2022-09-03T00:33:09.534Z,100917.00
2022-09-03T00:35:41.381Z,100925.00
2022-09-03T00:38:08.397Z,100927.00
2022-09-03T00:40:37.975Z,100921.00
2022-09-03T00:43:09.529Z,100927.00
2022-09-03T00:45:44.267Z,100932.00
2022-09-03T00:48:18.489Z,100929.00
2022-09-03T00:50:44.941Z,100930.00
2022-09-03T00:53:11.800Z,100938.00
2022-09-03T00:55:38.632Z,100941.00
2022-09-03T00:58:05.054Z,100935.00
2022-09-03T01:00:31.573Z,100941.00
2022-09-03T01:03:01.086Z,100932.00
2022-09-03T01:05:49.543Z,100938.00
2022-09-03T01:08:32.250Z,100923.00
2022-09-03T01:11:20.044Z,100932.00
2022-09-03T01:13:50.591Z,100930.00
2022-09-03T01:16:31.557Z,100925.00
2022-09-03T01:18:58.045Z,100925.00
2022-09-03T01:21:30.612Z,100926.00
2022-09-03T01:24:09.896Z,100938.00
2022-09-03T01:26:36.357Z,100930.00
2022-09-03T01:29:08.501Z,100943.00
2022-09-03T01:32:01.612Z,100944.00
2022-09-03T01:34:34.140Z,100946.00
2022-09-03T01:37:20.556Z,100953.00
2022-09-03T01:40:06.045Z,100945.00
2022-09-03T01:42:41.820Z,100948.00
2022-09-03T01:45:14.439Z,100940.00
2022-09-03T01:47:51.539Z,100940.00
2022-09-03T01:50:36.731Z,100937.00
2022-09-03T01:53:13.162Z,100932.00
2022-09-03T01:55:39.648Z,100931.00
2022-09-03T01:58:09.767Z,100943.00
2022-09-03T02:00:39.268Z,100942.00
2022-09-03T02:03:09.000Z,100932.00
2022-09-03T02:05:35.682Z,100940.00
2022-09-03T02:08:06.963Z,100939.00
2022-09-03T02:10:53.707Z,100937.00
2022-09-03T02:13:23.688Z,100939.00
2022-09-03T02:15:52.251Z,100929.00
2022-09-03T02:18:21.024Z,100944.00
2022-09-03T02:20:48.768Z,100954.00
2022-09-03T02:23:15.836Z,100952.00
2022-09-03T02:25:44.856Z,100960.00
2022-09-03T02:28:16.930Z,100949.00
2022-09-03T02:30:44.256Z,100954.00
2022-09-03T02:33:10.899Z,100951.00
2022-09-03T02:35:37.446Z,100943.00
2022-09-03T02:38:14.791Z,100942.00
2022-09-03T02:40:41.349Z,100950.00
2022-09-03T02:43:11.060Z,100944.00
2022-09-03T02:45:41.863Z,100949.00
2022-09-03T02:48:09.509Z,100951.00
2022-09-03T02:50:40.801Z,100954.00
2022-09-03T02:53:07.344Z,100953.00
2022-09-03T02:55:33.785Z,100952.00
2022-09-03T02:58:00.498Z,100943.00
2022-09-03T03:00:28.666Z,100948.00
2022-09-03T03:02:55.809Z,100942.00
2022-09-03T03:05:26.853Z,100948.00
2022-09-03T03:07:53.288Z,100947.00
2022-09-03T03:10:19.763Z,100936.00
2022-09-03T03:12:46.202Z,100934.00
2022-09-03T03:15:12.679Z,100928.00
2022-09-03T03:17:39.262Z,100925.00
2022-09-03T03:20:05.942Z,100922.00
2022-09-03T03:22:32.394Z,100930.00
2022-09-03T03:24:58.888Z,100922.00
2022-09-03T03:27:25.969Z,100925.00
2022-09-03T03:29:54.888Z,100928.00
2022-09-03T03:32:21.492Z,100929.00
2022-09-03T03:34:47.941Z,100923.00
2022-09-03T03:37:14.817Z,100931.00
2022-09-03T03:39:41.432Z,100929.00
2022-09-03T03:42:08.014Z,100920.00
2022-09-03T03:44:34.521Z,100915.00
2022-09-03T03:47:00.984Z,100920.00
2022-09-03T03:55:39.482Z,100920.00
2022-09-03T03:58:05.935Z,100913.00
2022-09-03T04:00:32.419Z,100903.00
2022-09-03T04:02:59.475Z,100906.00
2022-09-03T04:05:25.945Z,100908.00
2022-09-03T04:07:53.329Z,100906.00
2022-09-03T04:10:19.927Z,100908.00
2022-09-03T04:12:46.435Z,100904.00
2022-09-03T04:15:13.073Z,100908.00
2022-09-03T04:17:39.890Z,100906.00
2022-09-03T04:20:06.581Z,100913.00
2022-09-03T04:22:33.730Z,100913.00
2022-09-03T04:25:00.197Z,100920.00
2022-09-03T04:27:26.697Z,100917.00
2022-09-03T04:29:53.183Z,100914.00
2022-09-03T04:32:38.394Z,100911.00
2022-09-03T04:35:05.033Z,100921.00
2022-09-03T04:37:32.896Z,100924.00
2022-09-03T04:39:59.389Z,100926.00
2022-09-03T04:42:25.912Z,100915.00
2022-09-03T04:44:52.367Z,100915.00
2022-09-03T04:47:18.900Z,100915.00
2022-09-03T04:49:45.390Z,100915.00
2022-09-03T04:52:12.045Z,100913.00
2022-09-03T04:54:38.527Z,100911.00
2022-09-03T04:57:04.979Z,100910.00
2022-09-03T04:59:31.463Z,100919.00
2022-09-03T05:01:58.049Z,100916.00
2022-09-03T05:04:24.911Z,100916.00
2022-09-03T05:06:51.453Z,100921.00
2022-09-03T05:09:18.005Z,100921.00
2022-09-03T05:11:45.045Z,100923.00
2022-09-03T05:14:12.729Z,100927.00
2022-09-03T05:16:39.338Z,100925.00
2022-09-03T05:19:08.811Z,100925.00
2022-09-03T05:21:38.379Z,100921.00
2022-09-03T05:24:05.071Z,100929.00
2022-09-03T05:26:33.322Z,100930.00
2022-09-03T05:29:00.821Z,100936.00
2022-09-03T05:31:28.577Z,100940.00
2022-09-03T05:33:58.376Z,100938.00
2022-09-03T05:36:25.743Z,100938.00
2022-09-03T05:38:55.974Z,100946.00
2022-09-03T05:41:23.093Z,100943.00
2022-09-03T05:43:56.207Z,100949.00
2022-09-03T05:46:33.278Z,100937.00
2022-09-03T05:49:03.945Z,100956.00
2022-09-03T05:51:30.999Z,100950.00
2022-09-03T05:53:57.735Z,100951.00
2022-09-03T05:56:25.128Z,100951.00
2022-09-03T05:58:53.328Z,100941.00
2022-09-03T06:01:20.122Z,100948.00
2022-09-03T06:03:48.614Z,100942.00
2022-09-03T06:06:15.725Z,100943.00
2022-09-03T06:08:42.792Z,100942.00
2022-09-03T06:11:09.398Z,100939.00
2022-09-03T06:13:35.871Z,100941.00
2022-09-03T06:16:04.691Z,100939.00
2022-09-03T06:18:31.413Z,100943.00
2022-09-03T06:20:58.890Z,100940.00
2022-09-03T06:23:25.666Z,100937.00
2022-09-03T06:26:06.390Z,100942.00
2022-09-03T06:28:34.885Z,100946.00
2022-09-03T06:31:02.377Z,100943.00
2022-09-03T06:33:31.002Z,100944.00
2022-09-03T06:35:59.430Z,100948.00
2022-09-03T06:38:27.412Z,100950.00
2022-09-03T06:40:54.890Z,100951.00
2022-09-03T06:43:21.913Z,100943.00
2022-09-03T06:45:55.280Z,100947.00
2022-09-03T06:48:21.800Z,100957.00
2022-09-03T06:51:01.967Z,100953.00
2022-09-03T06:53:33.198Z,100948.00
2022-09-03T06:56:00.661Z,100952.00
2022-09-03T06:58:31.398Z,100959.00
2022-09-03T07:01:01.999Z,100955.00
2022-09-03T07:03:28.697Z,100958.00
2022-09-03T07:05:59.831Z,100956.00
2022-09-03T07:08:26.966Z,100958.00
2022-09-03T07:10:53.514Z,100955.00
2022-09-03T07:13:20.215Z,100961.00
2022-09-03T07:15:46.971Z,100964.00
2022-09-03T07:18:13.519Z,100964.00
2022-09-03T07:20:39.970Z,100963.00
2022-09-03T07:23:06.459Z,100963.00
2022-09-03T07:25:32.991Z,100960.00
2022-09-03T07:28:00.001Z,100960.00
2022-09-03T07:30:26.577Z,100968.00
2022-09-03T07:32:54.111Z,100961.00
2022-09-03T07:35:20.630Z,100975.00
2022-09-03T07:37:48.233Z,100962.00
2022-09-03T07:40:16.909Z,100964.00
2022-09-03T07:42:43.382Z,100968.00
2022-09-03T07:45:10.773Z,100968.00
2022-09-03T07:47:37.451Z,100963.00
2022-09-03T07:50:04.774Z,100973.00
2022-09-03T07:52:31.231Z,100974.00
2022-09-03T07:54:57.721Z,100974.00
2022-09-03T07:57:26.658Z,100976.00
2022-09-03T07:59:53.163Z,100976.00
2022-09-03T08:02:19.765Z,100972.00
2022-09-03T08:04:46.409Z,100972.00
2022-09-03T08:07:12.896Z,100981.00
2022-09-03T08:09:39.486Z,100981.00
2022-09-03T08:12:06.246Z,100980.00
2022-09-03T08:14:32.675Z,100979.00
2022-09-03T08:17:00.118Z,100986.00
2022-09-03T08:19:26.667Z,100985.00
2022-09-03T08:21:53.152Z,100980.00
2022-09-03T08:24:21.874Z,100980.00
2022-09-03T08:26:52.158Z,100987.00
2022-09-03T08:29:19.248Z,100991.00
2022-09-03T08:31:45.885Z,100996.00
2022-09-03T08:34:14.577Z,100994.00
2022-09-03T08:36:44.484Z,101001.00
2022-09-03T08:39:11.458Z,101004.00
2022-09-03T08:41:52.982Z,101003.00
2022-09-03T08:44:22.443Z,101010.00
2022-09-03T08:46:55.820Z,101011.00
2022-09-03T08:49:34.728Z,101010.00
2022-09-03T08:52:03.150Z,101010.00
2022-09-03T08:54:31.194Z,101007.00
2022-09-03T08:57:00.625Z,101018.00
2022-09-03T08:59:33.337Z,101014.00
2022-09-03T09:02:25.596Z,101016.00
2022-09-03T09:05:01.047Z,101017.00
2022-09-03T09:07:33.026Z,101017.00
2022-09-03T09:10:13.559Z,101019.00
2022-09-03T09:12:48.912Z,101020.00
2022-09-03T09:15:26.412Z,101022.00
2022-09-03T09:17:55.986Z,101030.00
2022-09-03T09:20:48.844Z,101037.00
2022-09-03T09:23:18.521Z,101035.00
2022-09-03T09:25:48.574Z,101030.00
2022-09-03T09:28:20.065Z,101029.00
2022-09-03T09:30:47.711Z,101032.00
2022-09-03T09:33:15.232Z,101036.00
2022-09-03T09:35:43.128Z,101033.00
2022-09-03T09:38:10.347Z,101031.00
2022-09-03T09:40:41.467Z,101032.00
2022-09-03T09:43:14.632Z,101031.00
2022-09-03T09:45:42.503Z,101028.00
2022-09-03T09:48:10.952Z,101030.00
2022-09-03T09:50:40.448Z,101029.00
2022-09-03T09:53:15.006Z,101023.00
2022-09-03T09:55:50.590Z,101024.00
2022-09-03T09:58:19.718Z,101032.00
2022-09-03T10:01:00.153Z,101022.00
2022-09-03T10:03:27.687Z,101020.00
2022-09-03T10:06:23.299Z,101026.00
2022-09-03T10:08:49.869Z,101016.00
2022-09-03T10:11:17.458Z,101021.00
2022-09-03T10:13:45.992Z,101012.00
2022-09-03T10:16:29.495Z,101018.00
2022-09-03T10:19:22.338Z,101019.00
2022-09-03T10:21:54.585Z,101016.00
2022-09-03T10:24:32.019Z,101021.00
2022-09-03T10:26:58.607Z,101010.00
2022-09-03T10:29:30.131Z,101019.00
2022-09-03T10:32:04.131Z,101015.00
2022-09-03T10:34:42.960Z,101015.00
2022-09-03T10:37:33.680Z,101012.00
2022-09-03T10:40:13.136Z,101014.00
2022-09-03T10:42:52.988Z,101020.00
2022-09-03T10:45:23.510Z,101025.00
2022-09-03T10:48:07.378Z,101018.00
2022-09-03T10:50:44.526Z,101022.00
2022-09-03T10:53:16.566Z,101021.00
2022-09-03T10:55:55.847Z,101026.00
2022-09-03T10:58:28.394Z,101025.00
2022-09-03T11:00:59.969Z,101023.00
2022-09-03T11:03:32.968Z,101020.00
2022-09-03T11:05:59.943Z,101022.00
2022-09-03T11:08:47.319Z,101023.00
2022-09-03T11:11:27.770Z,101021.00
2022-09-03T11:14:00.170Z,101027.00
2022-09-03T11:16:30.711Z,101016.00
2022-09-03T11:19:01.223Z,101028.00
2022-09-03T11:21:28.736Z,101031.00
2022-09-03T11:24:05.660Z,101028.00
2022-09-03T11:26:32.779Z,101039.00
2022-09-03T11:29:08.654Z,101029.00
2022-09-03T11:31:41.402Z,101032.00
2022-09-03T11:34:14.093Z,101031.00
2022-09-03T11:36:50.122Z,101038.00
2022-09-03T11:39:37.230Z,101038.00
2022-09-03T11:42:08.299Z,101033.00
2022-09-03T11:44:44.305Z,101034.00
2022-09-03T11:47:23.052Z,101027.00
2022-09-03T11:49:50.989Z,101030.00
2022-09-03T11:52:32.315Z,101024.00
2022-09-03T11:54:59.023Z,101019.00
2022-09-03T11:57:29.808Z,101021.00
2022-09-03T12:00:09.523Z,101023.00
2022-09-03T12:02:39.081Z,101016.00
2022-09-03T12:05:16.760Z,101020.00
2022-09-03T12:07:50.204Z,101021.00
2022-09-03T12:10:34.990Z,101022.00
2022-09-03T12:13:09.393Z,101024.00
2022-09-03T12:15:54.307Z,101019.00
2022-09-03T12:18:31.197Z,101021.00
2022-09-03T12:21:00.602Z,101019.00
2022-09-03T12:23:28.214Z,101021.00
2022-09-03T12:25:55.258Z,101026.00
2022-09-03T12:28:25.923Z,101026.00
2022-09-03T12:30:53.948Z,101024.00
2022-09-03T12:33:22.374Z,101018.00
2022-09-03T12:35:59.540Z,101023.00
2022-09-03T12:38:26.998Z,101020.00
2022-09-03T12:43:44.131Z,101017.00
2022-09-03T12:46:16.510Z,101017.00
2022-09-03T12:48:47.714Z,101006.00
2022-09-03T12:54:02.135Z,101010.00
2022-09-03T12:56:31.020Z,101012.00
2022-09-03T12:58:59.254Z,101024.00
2022-09-03T13:01:30.040Z,101017.00
2022-09-03T13:03:59.608Z,101011.00
2022-09-03T13:06:28.467Z,101012.00
2022-09-03T13:09:00.956Z,101020.00
2022-09-03T13:11:27.742Z,101011.00
2022-09-03T13:14:14.206Z,101008.00
2022-09-03T13:16:46.809Z,101015.00
2022-09-03T13:19:19.892Z,101008.00
2022-09-03T13:21:50.795Z,101013.00
2022-09-03T13:24:23.257Z,101010.00
2022-09-03T13:26:49.906Z,101012.00
2022-09-03T13:29:19.434Z,101002.00
2022-09-03T13:32:05.347Z,101009.00
2022-09-03T13:34:35.567Z,101007.00
2022-09-03T13:37:14.068Z,101008.00
2022-09-03T13:39:47.609Z,101009.00
2022-09-03T13:42:18.377Z,101005.00
2022-09-03T13:44:52.548Z,101005.00
2022-09-03T13:47:26.266Z,101010.00
2022-09-03T13:50:15.345Z,101013.00
2022-09-03T13:52:45.463Z,101012.00
2022-09-03T13:55:23.039Z,101021.00
2022-09-03T13:57:53.218Z,101016.00
2022-09-03T14:00:25.826Z,101017.00
2022-09-03T14:02:54.322Z,101022.00
2022-09-03T14:05:32.313Z,101017.00
2022-09-03T14:07:58.766Z,101020.00
2022-09-03T14:10:35.252Z,101023.00
2022-09-03T14:13:10.816Z,101019.00
2022-09-03T14:15:45.574Z,101018.00
2022-09-03T14:18:31.158Z,101020.00
2022-09-03T14:20:57.654Z,101019.00
2022-09-03T14:23:42.874Z,101018.00
2022-09-03T14:26:16.812Z,101022.00
2022-09-03T14:28:46.885Z,101012.00
2022-09-03T14:31:13.757Z,101006.00
2022-09-03T14:33:55.354Z,101011.00
2022-09-03T14:36:27.873Z,101012.00
2022-09-03T14:38:54.323Z,101017.00
2022-09-03T14:41:39.563Z,101017.00
2022-09-03T14:44:09.136Z,101016.00
2022-09-03T14:46:43.922Z,101024.00
2022-09-03T14:49:29.128Z,101018.00
2022-09-03T14:52:07.850Z,101026.00
2022-09-03T14:54:43.830Z,101025.00
2022-09-03T14:57:26.405Z,101020.00
2022-09-03T15:00:12.292Z,101026.00
2022-09-03T15:02:46.341Z,101023.00
2022-09-03T15:05:12.816Z,101027.00
2022-09-03T15:07:51.826Z,101024.00
2022-09-03T15:10:24.813Z,101027.00
2022-09-03T15:13:23.749Z,101028.00
2022-09-03T15:16:02.254Z,101027.00
2022-09-03T15:18:54.480Z,101033.00
2022-09-03T15:21:24.380Z,101029.00
2022-09-03T15:23:51.837Z,101030.00
2022-09-03T15:26:50.690Z,101035.00
2022-09-03T15:29:36.752Z,101041.00
2022-09-03T15:32:05.078Z,101042.00
2022-09-03T15:34:41.012Z,101045.00
2022-09-03T15:37:33.620Z,101040.00
2022-09-03T15:40:03.282Z,101036.00
2022-09-03T15:42:30.156Z,101043.00
2022-09-03T15:45:02.292Z,101041.00
2022-09-03T15:47:51.716Z,101046.00
2022-09-03T15:50:30.840Z,101052.00
2022-09-03T15:53:00.408Z,101054.00
2022-09-03T15:55:38.827Z,101057.00
2022-09-03T15:58:08.627Z,101069.00
2022-09-03T16:00:53.186Z,101079.00
2022-09-03T16:03:31.291Z,101080.00
2022-09-03T16:06:02.190Z,101078.00
2022-09-03T16:08:28.676Z,101066.00
2022-09-03T16:11:02.927Z,101071.00
2022-09-03T16:13:34.990Z,101065.00
2022-09-03T16:16:06.475Z,101051.00
2022-09-03T16:18:49.798Z,101052.00
2022-09-03T16:21:26.045Z,101058.00
2022-09-03T16:23:58.867Z,101069.00
2022-09-03T16:26:45.601Z,101069.00
2022-09-03T16:29:13.870Z,101068.00
2022-09-03T16:31:59.167Z,101064.00
2022-09-03T16:34:32.011Z,101082.00
2022-09-03T16:37:17.319Z,101090.00
2022-09-03T16:39:52.657Z,101087.00
2022-09-03T16:42:25.097Z,101094.00
2022-09-03T16:45:05.587Z,101083.00
2022-09-03T16:47:51.007Z,101088.00
2022-09-03T16:50:20.505Z,101083.00
2022-09-03T16:52:54.097Z,101093.00
2022-09-03T16:55:37.826Z,101101.00
2022-09-03T16:58:30.951Z,101112.00
2022-09-03T17:00:57.526Z,101112.00
2022-09-03T17:03:48.183Z,101103.00
2022-09-03T17:06:18.000Z,101108.00
2022-09-03T17:08:49.346Z,101115.00
2022-09-03T17:11:28.447Z,101115.00
2022-09-03T17:14:27.518Z,101115.00
2022-09-03T17:16:57.136Z,101124.00
2022-09-03T17:19:32.767Z,101129.00
2022-09-03T17:22:17.573Z,101131.00
2022-09-03T17:25:03.965Z,101133.00
2022-09-03T17:27:35.367Z,101137.00
2022-09-03T17:30:09.796Z,101134.00
2022-09-03T17:32:57.343Z,101144.00
2022-09-03T17:35:39.519Z,101141.00
2022-09-03T17:38:44.708Z,101142.00
2022-09-03T17:41:34.281Z,101142.00
2022-09-03T17:44:06.467Z,101151.00
2022-09-03T17:47:05.517Z,101147.00
2022-09-03T17:49:43.097Z,101152.00
2022-09-03T17:52:30.467Z,101154.00
2022-09-03T17:54:59.527Z,101157.00
2022-09-03T17:57:38.306Z,101162.00
2022-09-03T18:00:07.210Z,101163.00
2022-09-03T18:02:33.634Z,101162.00
2022-09-03T18:05:08.196Z,101169.00
2022-09-03T18:07:40.805Z,101176.00
2022-09-03T18:10:18.394Z,101177.00
2022-09-03T18:13:04.300Z,101189.00
2022-09-03T18:15:57.385Z,101183.00
2022-09-03T18:18:28.245Z,101189.00
2022-09-03T18:21:25.212Z,101193.00
2022-09-03T18:24:31.855Z,101185.00
2022-09-03T18:27:22.647Z,101193.00
2022-09-03T18:30:12.592Z,101207.00
2022-09-03T18:32:57.769Z,101205.00
2022-09-03T18:35:43.903Z,101208.00
2022-09-03T18:38:28.885Z,101216.00
2022-09-03T18:41:23.602Z,101219.00
2022-09-03T18:44:27.544Z,101212.00
2022-09-03T18:50:44.661Z,101211.00
2022-09-03T18:53:52.340Z,101209.00
2022-09-03T18:56:45.650Z,101212.00
2022-09-03T18:59:44.839Z,101217.00
2022-09-03T19:02:46.872Z,101220.00
2022-09-03T19:05:43.956Z,101222.00
2022-09-03T19:08:32.078Z,101234.00
2022-09-03T19:11:17.314Z,101237.00
2022-09-03T19:14:02.228Z,101240.00
2022-09-03T19:17:13.104Z,101246.00
2022-09-03T19:20:16.918Z,101252.00
2022-09-03T19:23:02.143Z,101254.00
2022-09-03T19:25:48.337Z,101247.00
2022-09-03T19:28:40.297Z,101250.00
2022-09-03T19:31:35.337Z,101257.00
2022-09-03T19:34:27.877Z,101246.00
2022-09-03T19:37:31.990Z,101255.00
2022-09-03T19:40:55.544Z,101251.00
2022-09-03T19:43:40.400Z,101262.00
2022-09-03T19:46:37.264Z,101269.00
2022-09-03T19:49:31.269Z,101266.00
2022-09-03T19:52:20.112Z,101265.00
2022-09-03T19:55:08.528Z,101272.00
2022-09-03T19:57:53.792Z,101279.00
2022-09-03T20:00:40.978Z,101276.00
2022-09-03T20:03:26.630Z,101274.00
2022-09-03T20:06:11.714Z,101282.00
2022-09-03T20:08:57.162Z,101284.00
2022-09-03T20:11:24.283Z,101286.00
2022-09-03T20:14:09.187Z,101280.00
2022-09-03T20:16:41.905Z,101282.00
2022-09-03T20:19:32.810Z,101280.00
2022-09-03T20:21:59.264Z,101283.00
2022-09-03T20:24:28.984Z,101286.00
2022-09-03T20:27:02.559Z,101291.00
2022-09-03T20:29:29.052Z,101295.00
2022-09-03T20:32:07.831Z,101293.00
2022-09-03T20:34:49.526Z,101285.00
2022-09-03T20:37:28.284Z,101292.00
2022-09-03T20:40:02.219Z,101289.00
2022-09-03T20:42:39.593Z,101293.00
2022-09-03T20:45:06.674Z,101301.00
2022-09-03T20:48:00.086Z,101293.00
2022-09-03T20:50:45.599Z,101297.00
2022-09-03T20:53:15.082Z,101288.00
2022-09-03T20:55:49.186Z,101291.00
2022-09-03T20:58:15.665Z,101291.00
2022-09-03T21:00:49.169Z,101295.00
2022-09-03T21:03:18.101Z,101298.00
2022-09-03T21:05:47.605Z,101291.00
2022-09-03T21:08:29.945Z,101290.00
2022-09-03T21:10:58.294Z,101288.00
2022-09-03T21:13:38.515Z,101292.00
2022-09-03T21:16:20.670Z,101285.00
2022-09-03T21:18:47.147Z,101291.00
2022-09-03T21:21:36.711Z,101291.00
2022-09-03T21:24:06.362Z,101293.00
2022-09-03T21:26:35.194Z,101300.00
2022-09-03T21:29:11.599Z,101306.00
2022-09-03T21:31:58.491Z,101298.00
2022-09-03T21:34:30.358Z,101297.00
2022-09-03T21:36:57.472Z,101302.00
2022-09-03T21:39:36.878Z,101303.00
2022-09-03T21:42:07.459Z,101299.00
2022-09-03T21:44:40.120Z,101304.00
2022-09-03T21:47:09.680Z,101311.00
2022-09-03T21:49:39.956Z,101299.00
2022-09-03T21:52:08.820Z,101300.00
2022-09-03T21:54:35.697Z,101301.00
2022-09-03T21:57:16.578Z,101304.00
2022-09-03T21:59:51.435Z,101302.00
2022-09-03T22:02:23.517Z,101301.00
2022-09-03T22:04:50.442Z,101300.00
2022-09-03T22:07:26.309Z,101299.00
2022-09-03T22:10:11.703Z,101308.00
2022-09-03T22:12:44.844Z,101308.00
2022-09-03T22:15:13.252Z,101310.00
2022-09-03T22:17:46.136Z,101317.00
2022-09-03T22:20:14.603Z,101313.00
2022-09-03T22:22:52.376Z,101317.00
2022-09-03T22:25:24.995Z,101320.00
2022-09-03T22:28:03.423Z,101316.00
2022-09-03T22:30:32.830Z,101320.00
2022-09-03T22:33:18.510Z,101323.00
2022-09-03T22:35:54.060Z,101317.00
2022-09-03T22:38:46.583Z,101325.00
2022-09-03T22:41:32.162Z,101327.00
2022-09-03T22:44:04.853Z,101317.00
2022-09-03T22:46:35.732Z,101318.00
2022-09-03T22:49:34.713Z,101318.00
2022-09-03T22:52:03.993Z,101322.00
2022-09-03T22:54:30.476Z,101320.00
2022-09-03T22:56:58.044Z,101319.00
2022-09-03T22:59:37.109Z,101327.00
2022-09-03T23:02:29.912Z,101338.00
2022-09-03T23:05:15.073Z,101341.00
2022-09-03T23:08:01.103Z,101342.00
2022-09-03T23:10:30.051Z,101339.00
2022-09-03T23:13:18.279Z,101345.00
2022-09-03T23:15:46.217Z,101355.00
2022-09-03T23:18:17.576Z,101358.00
2022-09-03T23:20:55.385Z,101357.00
2022-09-03T23:23:29.827Z,101350.00
2022-09-03T23:26:23.357Z,101349.00
2022-09-03T23:28:54.482Z,101357.00
2022-09-03T23:31:22.892Z,101345.00
2022-09-03T23:33:52.171Z,101343.00
2022-09-03T23:37:05.899Z,101347.00
2022-09-03T23:39:36.773Z,101355.00
2022-09-03T23:42:03.236Z,101347.00
2022-09-03T23:44:31.020Z,101359.00
2022-09-03T23:47:05.753Z,101364.00
2022-09-03T23:49:43.691Z,101355.00
2022-09-03T23:52:21.713Z,101361.00
2022-09-03T23:54:49.199Z,101359.00
2022-09-03T23:57:24.537Z,101359.00
2022-09-03T23:59:51.077Z,101365.00
